This is the latest recevied weather packets stored in our database for station/object S50ME-11. If no packets are shown the sender has not sent any weather packets the latest 10 day(s).
| Time | Temp. | Humidity | Pressure | Rain* | Wind** | Luminosity | Snow |
|---|---|---|---|---|---|---|---|
| 1777985148 | 25° C | 37% | 1013.2 hPa | - | - | - | - |
| 1777984253 | 25° C | 37% | 1013.2 hPa | - | - | - | - |
| 1777984247 | 25° C | 37% | 1013.2 hPa | - | - | - | - |
| 1777983353 | 25.56° C | 36% | 1013.3 hPa | - | - | - | - |
| 1777983347 | 25.56° C | 36% | 1013.3 hPa | - | - | - | - |
| 1777982454 | 26.11° C | 36% | 1013.6 hPa | - | - | - | - |
| 1777981554 | 27.22° C | 36% | 1013.5 hPa | - | - | - | - |
| 1777980697 | 28.33° C | 35% | 1013.4 hPa | - | - | - | - |
| 1777980657 | 28.33° C | 35% | 1013.4 hPa | - | - | - | - |
| 1777980653 | 28.33° C | 35% | 1013.4 hPa | - | - | - | - |
| 1777979756 | 28.89° C | 35% | 1013.3 hPa | - | - | - | - |
| 1777979753 | 28.89° C | 35% | 1013.3 hPa | - | - | - | - |
| 1777978904 | 29.44° C | 35% | 1013.1 hPa | - | - | - | - |
| 1777978856 | 29.44° C | 35% | 1013.1 hPa | - | - | - | - |
| 1777978855 | 29.44° C | 35% | 1013.1 hPa | - | - | - | - |
| 1777977956 | 30.56° C | 35% | 1012.8 hPa | - | - | - | - |
| 1777977953 | 30.56° C | 35% | 1012.8 hPa | - | - | - | - |
| 1777977087 | 31.11° C | 34% | 1012.4 hPa | - | - | - | - |
| 1777977055 | 31.11° C | 34% | 1012.4 hPa | - | - | - | - |
| 1777977052 | 31.11° C | 34% | 1012.4 hPa | - | - | - | - |
| 1777976155 | 32.22° C | 34% | 1011.8 hPa | - | - | - | - |
| 1777976152 | 32.22° C | 34% | 1011.8 hPa | - | - | - | - |
| 1777975372 | 32.22° C | 34% | 1011.7 hPa | - | - | - | - |
| 1777975256 | 32.22° C | 34% | 1011.7 hPa | - | - | - | - |
| 1777975252 | 32.22° C | 34% | 1011.7 hPa | - | - | - | - |
* Rain since midnight (hover to see other rain measurements)
** Current wind speed in m/s (hover to see current wind gust speed)